Time;durP1;ratioP1;P1;durP2;ratioP2;P2;SDS_P1;SDS_P2;PMS_P1;PMS_P2;Temp;Humidity;BMP_temperature;BMP_pressure;BME280_temperature;BME280_humidity;BME280_pressure;Samples;Min_cycle;Max_cycle;Signal;HPM_P1;HPM_P2
2023/11/02 00:02:20;;;;;;;13.10;12.20;;;12.50;99.90;;;;;;4845438;29;20459;-49
2023/11/02 00:04:48;;;;;;;12.00;11.30;;;12.50;99.90;;;;;;4859061;29;21556;-44
2023/11/02 00:07:14;;;;;;;12.60;11.80;;;12.40;99.90;;;;;;4853232;29;20957;-41
2023/11/02 00:09:39;;;;;;;12.60;11.90;;;12.40;99.90;;;;;;4852165;29;20483;-41
2023/11/02 00:12:07;;;;;;;12.00;11.20;;;12.30;99.90;;;;;;4852046;29;20256;-41
2023/11/02 00:14:43;;;;;;;12.50;11.70;;;12.30;99.90;;;;;;4851613;29;20950;-42
2023/11/02 00:17:30;;;;;;;12.30;11.60;;;12.40;99.90;;;;;;4851153;29;20449;-42
2023/11/02 00:19:56;;;;;;;11.80;11.10;;;12.30;99.90;;;;;;4853898;29;20452;-43
2023/11/02 00:22:22;;;;;;;12.83;12.03;;;12.40;99.90;;;;;;4852271;29;20439;-40
2023/11/02 00:24:49;;;;;;;12.60;11.80;;;12.40;99.90;;;;;;4851912;29;21309;-41
2023/11/02 00:27:15;;;;;;;12.60;11.80;;;12.40;99.90;;;;;;4850846;29;20216;-47
2023/11/02 00:29:41;;;;;;;12.50;11.70;;;12.40;99.90;;;;;;4856080;29;20595;-41
2023/11/02 00:32:08;;;;;;;12.37;11.67;;;12.30;99.90;;;;;;4851046;29;21104;-41
2023/11/02 00:34:34;;;;;;;12.70;11.90;;;12.30;99.90;;;;;;4852419;29;20188;-41
2023/11/02 00:37:00;;;;;;;12.60;11.80;;;12.30;99.90;;;;;;4855931;29;20476;-41
2023/11/02 00:39:27;;;;;;;12.93;11.93;;;12.30;99.90;;;;;;4851933;29;20889;-39
2023/11/02 00:41:53;;;;;;;12.40;11.70;;;12.30;99.90;;;;;;4852190;29;20516;-40
2023/11/02 00:44:19;;;;;;;13.17;12.17;;;12.40;99.90;;;;;;4851731;29;20453;-39
2023/11/02 00:46:45;;;;;;;12.40;11.50;;;12.30;99.90;;;;;;4851661;29;20991;-40
2023/11/02 00:49:21;;;;;;;12.90;12.00;;;12.40;99.90;;;;;;4851591;29;20513;-40
2023/11/02 00:51:58;;;;;;;12.40;11.60;;;12.30;99.90;;;;;;4857000;29;20500;-39
2023/11/02 00:54:47;;;;;;;13.60;12.40;;;12.30;99.90;;;;;;4851684;29;20990;-39
2023/11/02 00:57:20;;;;;;;13.10;12.20;;;12.30;99.90;;;;;;4850358;29;20524;-40
2023/11/02 00:59:46;;;;;;;12.97;12.17;;;12.20;99.90;;;;;;4835510;29;20513;-40
2023/11/02 01:02:14;;;;;;;12.67;11.70;;;12.20;99.90;;;;;;4849734;29;20449;-40
2023/11/02 01:04:42;;;;;;;13.23;12.43;;;12.30;99.90;;;;;;4864446;29;20188;-40
2023/11/02 01:07:13;;;;;;;13.20;12.40;;;12.30;99.90;;;;;;4860831;29;20452;-40
2023/11/02 01:09:48;;;;;;;12.97;12.27;;;12.20;99.90;;;;;;4854102;29;20485;-40
2023/11/02 01:12:19;;;;;;;13.63;12.60;;;12.20;99.90;;;;;;4851783;29;20472;-40
2023/11/02 01:14:49;;;;;;;12.73;12.00;;;12.20;99.90;;;;;;4852693;29;20444;-42
2023/11/02 01:17:31;;;;;;;13.40;12.50;;;12.20;99.90;;;;;;4859865;29;20784;-40
2023/11/02 01:20:10;;;;;;;12.57;11.67;;;12.20;99.90;;;;;;4850375;29;20492;-40
2023/11/02 01:22:48;;;;;;;12.73;11.93;;;12.10;99.90;;;;;;4850801;29;20601;-40
2023/11/02 01:25:14;;;;;;;12.40;11.67;;;12.10;99.90;;;;;;4858006;29;20456;-39
2023/11/02 01:27:40;;;;;;;13.60;12.70;;;12.10;99.90;;;;;;4861968;29;20850;-41
2023/11/02 01:30:30;;;;;;;12.80;12.10;;;12.10;99.90;;;;;;4850373;29;20216;-45
2023/11/02 01:32:55;;;;;;;12.80;11.77;;;12.00;99.90;;;;;;4855420;29;20201;-39
2023/11/02 01:35:44;;;;;;;13.60;12.60;;;12.00;99.90;;;;;;4834453;29;21078;-40
2023/11/02 01:38:13;;;;;;;12.43;11.60;;;12.00;99.90;;;;;;4833667;29;20472;-40
2023/11/02 01:40:53;;;;;;;12.33;11.40;;;12.00;99.90;;;;;;4850349;29;20485;-40
2023/11/02 01:43:29;;;;;;;13.20;12.20;;;12.00;99.90;;;;;;4851346;29;20517;-40
2023/11/02 01:46:01;;;;;;;13.57;12.60;;;11.90;99.90;;;;;;4853610;29;20592;-42
2023/11/02 01:48:43;;;;;;;12.53;11.73;;;11.90;99.90;;;;;;4851258;29;20905;-39
2023/11/02 01:51:26;;;;;;;12.97;12.17;;;11.90;99.90;;;;;;4852879;29;20479;-42
2023/11/02 01:54:05;;;;;;;13.10;12.17;;;11.80;99.90;;;;;;4838316;29;20505;-39
2023/11/02 01:56:49;;;;;;;13.70;12.80;;;11.90;99.90;;;;;;4853460;29;21019;-39
2023/11/02 01:59:41;;;;;;;12.90;12.10;;;11.90;99.90;;;;;;4850884;29;20449;-39
2023/11/02 02:02:35;;;;;;;12.57;11.83;;;11.90;99.90;;;;;;4850251;29;21435;-41
2023/11/02 02:05:03;;;;;;;12.30;11.60;;;11.80;99.90;;;;;;4845258;29;20449;-41
2023/11/02 02:08:00;;;;;;;13.23;12.37;;;11.80;99.90;;;;;;4849325;29;20445;-40
2023/11/02 02:10:44;;;;;;;12.57;11.83;;;11.80;99.90;;;;;;4841648;29;20496;-41
2023/11/02 02:13:45;;;;;;;12.70;11.97;;;11.80;99.90;;;;;;4839929;29;20454;-41
2023/11/02 02:16:11;;;;;;;14.00;13.10;;;11.80;99.90;;;;;;4840667;29;20445;-41
2023/11/02 02:18:48;;;;;;;12.97;12.27;;;11.70;99.90;;;;;;4849011;29;20451;-39
2023/11/02 02:21:38;;;;;;;12.33;11.63;;;11.70;99.90;;;;;;4848992;29;20691;-40
2023/11/02 02:24:17;;;;;;;12.73;11.93;;;11.70;99.90;;;;;;4832904;29;20429;-42
2023/11/02 02:27:05;;;;;;;13.63;12.60;;;11.70;1.00;;;;;;4860273;29;20436;-40
2023/11/02 02:29:52;;;;;;;13.00;12.10;;;11.70;1.00;;;;;;4854073;29;20435;-39
2023/11/02 02:32:42;;;;;;;13.60;12.70;;;11.60;1.00;;;;;;4849024;29;20598;-43
2023/11/02 02:35:30;;;;;;;13.00;12.30;;;11.60;1.00;;;;;;4850102;29;20473;-40
2023/11/02 02:38:06;;;;;;;13.50;12.60;;;11.50;1.00;;;;;;4849577;29;20437;-40
2023/11/02 02:40:39;;;;;;;13.83;12.83;;;11.40;95.00;;;;;;4849013;29;20548;-39
2023/11/02 02:43:06;;;;;;;12.87;12.07;;;11.40;99.90;;;;;;4851196;29;20449;-41
2023/11/02 02:45:34;;;;;;;13.60;12.70;;;11.30;99.90;;;;;;4848844;29;20437;-40
2023/11/02 02:48:01;;;;;;;13.50;12.70;;;11.30;99.90;;;;;;4853485;29;20455;-40
2023/11/02 02:50:31;;;;;;;12.87;12.07;;;11.20;1.00;;;;;;4848092;29;21236;-40
2023/11/02 02:52:58;;;;;;;13.40;12.50;;;11.20;1.00;;;;;;4853775;29;20924;-40
2023/11/02 02:55:26;;;;;;;13.13;12.33;;;11.20;98.80;;;;;;4836698;29;20452;-40
2023/11/02 02:57:57;;;;;;;13.20;12.23;;;11.10;99.90;;;;;;4849093;29;20433;-40
2023/11/02 03:00:23;;;;;;;13.50;12.70;;;11.10;1.00;;;;;;4849712;29;20449;-43
2023/11/02 03:02:51;;;;;;;13.10;12.37;;;11.00;1.00;;;;;;4848482;29;20581;-44
2023/11/02 03:05:18;;;;;;;13.00;12.00;;;11.00;99.90;;;;;;4860917;29;20503;-40
2023/11/02 03:07:49;;;;;;;13.03;12.20;;;11.00;1.00;;;;;;4852062;29;20465;-39
2023/11/02 03:10:17;;;;;;;13.33;12.53;;;10.90;1.00;;;;;;4848260;29;20480;-41
2023/11/02 03:12:46;;;;;;;13.60;12.80;;;10.90;1.00;;;;;;4849569;29;20480;-42
2023/11/02 03:15:13;;;;;;;13.30;12.50;;;10.80;99.90;;;;;;4853163;29;20421;-41
2023/11/02 03:17:44;;;;;;;13.73;12.73;;;10.80;1.00;;;;;;4849647;29;20436;-39
2023/11/02 03:20:11;;;;;;;12.87;12.07;;;10.70;99.90;;;;;;4848585;29;20449;-39
2023/11/02 03:22:43;;;;;;;13.40;12.60;;;10.70;99.90;;;;;;4854093;29;20794;-39
2023/11/02 03:25:11;;;;;;;13.73;12.77;;;10.60;99.90;;;;;;4850280;29;20449;-40
2023/11/02 03:27:45;;;;;;;13.67;12.73;;;10.60;1.00;;;;;;4848511;29;20800;-40
2023/11/02 03:30:20;;;;;;;13.40;12.60;;;10.60;1.00;;;;;;4849138;29;20469;-39
2023/11/02 03:33:23;;;;;;;12.57;11.80;;;10.50;1.00;;;;;;4851327;29;20543;-40
2023/11/02 03:35:57;;;;;;;13.47;12.57;;;10.40;99.90;;;;;;4849281;29;20437;-39
2023/11/02 03:38:44;;;;;;;13.63;12.83;;;10.40;99.90;;;;;;4848485;29;20437;-39
2023/11/02 03:41:22;;;;;;;13.07;12.07;;;10.30;99.90;;;;;;4842615;29;21619;-49
2023/11/02 03:44:05;;;;;;;13.63;12.83;;;10.30;99.90;;;;;;4855868;29;20452;-48
2023/11/02 03:46:44;;;;;;;14.37;13.37;;;10.30;99.90;;;;;;4852836;29;20830;-48
2023/11/02 03:49:22;;;;;;;13.07;12.13;;;10.20;1.00;;;;;;4849034;29;20448;-48
2023/11/02 03:52:02;;;;;;;12.23;11.53;;;10.10;1.00;;;;;;4850853;29;20473;-45
2023/11/02 03:54:43;;;;;;;13.27;12.37;;;10.10;1.00;;;;;;4850013;29;20472;-49
2023/11/02 03:57:44;;;;;;;12.93;12.13;;;10.10;1.00;;;;;;4849044;29;20564;-50
2023/11/02 04:00:11;;;;;;;13.00;12.10;;;10.00;1.00;;;;;;4852737;29;20457;-49
2023/11/02 04:02:54;;;;;;;12.43;11.73;;;10.00;1.00;;;;;;4851141;29;21035;-43
2023/11/02 04:05:22;;;;;;;12.87;11.97;;;10.00;1.00;;;;;;4861570;29;21176;-51
2023/11/02 04:08:06;;;;;;;13.97;13.07;;;9.90;1.00;;;;;;4853181;29;21349;-41
2023/11/02 04:10:35;;;;;;;13.07;12.27;;;9.90;1.00;;;;;;4851207;29;21002;-46
2023/11/02 04:13:25;;;;;;;12.70;11.90;;;9.90;1.00;;;;;;4835140;29;20555;-53
2023/11/02 04:15:52;;;;;;;12.93;12.03;;;9.90;1.00;;;;;;4852792;29;20421;-48
2023/11/02 04:18:18;;;;;;;13.50;12.50;;;9.90;1.00;;;;;;4851833;29;20433;-46
2023/11/02 04:20:45;;;;;;;12.43;11.67;;;9.80;1.00;;;;;;4851491;29;21537;-49
2023/11/02 04:23:14;;;;;;;13.80;12.90;;;9.80;1.00;;;;;;4851655;29;20482;-45
2023/11/02 04:25:40;;;;;;;13.70;12.83;;;9.80;1.00;;;;;;4835070;29;20425;-50
2023/11/02 04:28:05;;;;;;;13.23;12.40;;;9.80;1.00;;;;;;4851581;29;21156;-48
2023/11/02 04:30:32;;;;;;;13.00;12.13;;;9.80;1.00;;;;;;4851241;29;20204;-48
2023/11/02 04:32:57;;;;;;;13.20;12.20;;;9.70;1.00;;;;;;4851672;29;20236;-49
2023/11/02 04:35:23;;;;;;;13.67;12.77;;;9.70;1.00;;;;;;4851656;29;20437;-47
2023/11/02 04:38:05;;;;;;;13.53;12.63;;;9.70;1.00;;;;;;4851021;29;20200;-50
2023/11/02 04:40:32;;;;;;;13.70;12.70;;;9.70;1.00;;;;;;4852202;29;20283;-45
2023/11/02 04:42:58;;;;;;;13.67;12.50;;;9.70;1.00;;;;;;4836666;29;20952;-48
2023/11/02 04:45:24;;;;;;;14.43;13.23;;;9.70;1.00;;;;;;4851158;29;20532;-49
2023/11/02 04:47:49;;;;;;;13.47;12.53;;;9.70;1.00;;;;;;4850587;29;20544;-49
2023/11/02 04:50:15;;;;;;;13.77;12.67;;;9.70;1.00;;;;;;4833950;29;20244;-48
2023/11/02 04:52:41;;;;;;;13.87;12.80;;;9.70;1.00;;;;;;4850718;29;20185;-49
2023/11/02 04:55:06;;;;;;;13.40;12.50;;;9.70;1.00;;;;;;4836463;29;20545;-51
2023/11/02 04:57:33;;;;;;;12.90;12.10;;;9.70;1.00;;;;;;4853237;29;20664;-47
2023/11/02 05:00:02;;;;;;;13.77;12.87;;;9.70;1.00;;;;;;4857546;29;20192;-49
2023/11/02 05:02:27;;;;;;;13.67;12.67;;;9.70;1.00;;;;;;4856512;29;20567;-47
2023/11/02 05:04:53;;;;;;;13.87;13.00;;;9.70;1.00;;;;;;4852891;29;20491;-49
2023/11/02 05:07:19;;;;;;;13.60;12.70;;;9.70;1.00;;;;;;4864289;29;20568;-51
2023/11/02 05:09:44;;;;;;;13.97;13.03;;;9.60;1.00;;;;;;4841523;29;20199;-50
2023/11/02 05:12:10;;;;;;;13.60;12.73;;;9.60;1.00;;;;;;4863014;29;20346;-47
2023/11/02 05:14:36;;;;;;;14.00;12.90;;;9.60;1.00;;;;;;4854058;29;20195;-47
2023/11/02 05:17:01;;;;;;;13.73;12.73;;;9.50;1.00;;;;;;4859969;29;20200;-43
2023/11/02 05:19:27;;;;;;;12.93;12.00;;;9.50;1.00;;;;;;4857171;29;20206;-47
2023/11/02 05:21:52;;;;;;;14.03;13.13;;;9.50;1.00;;;;;;4856493;29;20660;-47
2023/11/02 05:24:18;;;;;;;13.30;12.40;;;9.50;1.00;;;;;;4859622;29;20192;-49
2023/11/02 05:26:43;;;;;;;13.97;13.07;;;9.40;1.00;;;;;;4858504;29;20188;-51
2023/11/02 05:29:09;;;;;;;14.33;13.30;;;9.40;1.00;;;;;;4868342;29;20188;-51
2023/11/02 05:31:36;;;;;;;13.63;12.73;;;9.40;1.00;;;;;;4856694;29;20688;-51
2023/11/02 05:34:02;;;;;;;13.47;12.57;;;9.40;1.00;;;;;;4865198;29;20176;-51
2023/11/02 05:36:28;;;;;;;14.00;12.90;;;9.40;1.00;;;;;;4851873;29;20468;-47
2023/11/02 05:38:53;;;;;;;13.50;12.60;;;9.40;1.00;;;;;;4857376;29;20891;-47
2023/11/02 05:41:20;;;;;;;13.63;12.63;;;9.30;1.00;;;;;;4858825;29;20687;-48
2023/11/02 05:43:45;;;;;;;14.47;13.57;;;9.30;1.00;;;;;;4857692;29;20691;-49
2023/11/02 05:46:11;;;;;;;14.33;13.00;;;9.20;1.00;;;;;;4859884;29;20425;-43
2023/11/02 05:48:37;;;;;;;13.67;12.67;;;9.20;1.00;;;;;;4867923;29;20196;-50
2023/11/02 05:51:02;;;;;;;14.80;13.87;;;9.20;1.00;;;;;;4861451;29;20393;-50
2023/11/02 05:53:28;;;;;;;13.43;12.43;;;9.10;1.00;;;;;;4866718;29;20742;-47
2023/11/02 05:55:54;;;;;;;14.10;13.20;;;9.10;1.00;;;;;;4863350;29;20218;-46
2023/11/02 05:58:19;;;;;;;14.50;13.40;;;9.00;1.00;;;;;;4866936;29;20199;-47
2023/11/02 06:00:45;;;;;;;15.67;14.37;;;9.00;1.00;;;;;;4862030;29;20253;-49
2023/11/02 06:03:11;;;;;;;14.50;13.50;;;9.00;1.70;;;;;;4835850;29;20200;-51
2023/11/02 06:05:36;;;;;;;15.53;14.43;;;9.10;1.00;;;;;;4855647;29;20203;-47
2023/11/02 06:08:02;;;;;;;14.23;13.33;;;9.10;1.90;;;;;;4860974;29;20200;-48
2023/11/02 06:10:28;;;;;;;14.63;13.63;;;9.10;3.70;;;;;;4867380;29;20219;-41
2023/11/02 06:12:54;;;;;;;14.47;13.37;;;9.10;4.00;;;;;;4861295;29;20206;-48
2023/11/02 06:15:19;;;;;;;15.20;14.10;;;9.10;1.50;;;;;;4866919;29;20187;-47
2023/11/02 06:17:45;;;;;;;14.20;13.10;;;9.20;1.00;;;;;;4862128;29;20220;-46
2023/11/02 06:20:10;;;;;;;15.20;14.00;;;9.20;1.00;;;;;;4866985;29;20682;-48
2023/11/02 06:22:36;;;;;;;15.60;14.40;;;9.30;1.00;;;;;;4857931;29;20196;-45
2023/11/02 06:25:05;;;;;;;15.10;14.10;;;9.30;1.00;;;;;;4865182;29;20226;-46
2023/11/02 06:27:30;;;;;;;16.40;15.20;;;9.30;1.00;;;;;;4857337;29;20199;-47
2023/11/02 06:29:56;;;;;;;15.70;14.60;;;9.40;1.00;;;;;;4866157;29;20951;-47
2023/11/02 06:32:22;;;;;;;16.17;14.70;;;9.40;1.00;;;;;;4864502;29;20187;-47
2023/11/02 06:34:48;;;;;;;17.30;16.00;;;9.40;1.00;;;;;;4863379;29;20244;-45
2023/11/02 06:37:18;;;;;;;16.33;15.07;;;9.40;1.00;;;;;;4838456;29;20537;-47
2023/11/02 06:39:48;;;;;;;16.10;14.80;;;9.40;1.00;;;;;;4851897;29;20184;-47
2023/11/02 06:42:14;;;;;;;15.83;14.53;;;9.50;1.00;;;;;;4853358;29;20429;-41
2023/11/02 06:44:43;;;;;;;16.30;15.17;;;9.50;1.00;;;;;;4853975;29;20425;-41
2023/11/02 06:47:13;;;;;;;16.40;15.20;;;9.50;1.00;;;;;;4850434;29;20204;-40
2023/11/02 06:49:39;;;;;;;15.53;14.33;;;9.60;1.00;;;;;;4860541;29;20429;-40
2023/11/02 06:52:05;;;;;;;16.17;15.03;;;9.60;1.00;;;;;;4851076;29;21533;-40
2023/11/02 06:54:31;;;;;;;16.03;14.83;;;9.70;1.00;;;;;;4851602;29;21019;-40
2023/11/02 06:56:57;;;;;;;16.60;15.20;;;9.70;1.00;;;;;;4851185;29;20430;-40
2023/11/02 06:59:23;;;;;;;16.00;14.70;;;9.70;1.00;;;;;;4854494;29;20426;-41
2023/11/02 07:01:50;;;;;;;16.60;15.50;;;9.80;1.00;;;;;;4852054;29;20529;-40
2023/11/02 07:04:20;;;;;;;17.30;15.90;;;9.80;1.00;;;;;;4850178;29;20275;-39
2023/11/02 07:06:46;;;;;;;17.50;16.20;;;9.80;1.00;;;;;;4833617;29;20529;-40
2023/11/02 07:09:13;;;;;;;16.20;15.00;;;9.90;1.00;;;;;;4863963;29;20443;-38
2023/11/02 07:11:39;;;;;;;16.23;15.13;;;10.00;1.00;;;;;;4865703;29;20503;-41
2023/11/02 07:14:05;;;;;;;15.33;14.30;;;10.10;1.00;;;;;;4850710;29;20449;-46
2023/11/02 07:16:31;;;;;;;16.03;14.93;;;10.10;1.00;;;;;;4849544;29;20944;-45
2023/11/02 07:18:58;;;;;;;15.23;14.13;;;10.20;1.00;;;;;;4835870;29;20421;-51
2023/11/02 07:21:23;;;;;;;15.77;14.57;;;10.30;1.00;;;;;;4849339;29;20600;-42
2023/11/02 07:23:53;;;;;;;15.67;14.57;;;10.50;1.00;;;;;;4848951;29;20474;-46
2023/11/02 07:26:18;;;;;;;16.30;15.20;;;10.60;99.90;;;;;;4855987;29;20215;-51
2023/11/02 07:28:44;;;;;;;15.03;13.93;;;10.70;99.90;;;;;;4871450;29;20475;-39
2023/11/02 07:31:10;;;;;;;15.23;14.20;;;10.80;99.90;;;;;;4868584;29;20255;-40
2023/11/02 07:33:40;;;;;;;15.10;14.00;;;10.90;99.90;;;;;;4859694;29;20806;-41
2023/11/02 07:36:15;;;;;;;15.00;13.87;;;11.00;8.70;;;;;;4874089;29;20244;-39
2023/11/02 07:38:40;;;;;;;15.30;14.17;;;11.10;1.00;;;;;;4877777;29;20427;-39
2023/11/02 07:41:06;;;;;;;14.80;13.60;;;11.30;1.00;;;;;;4876182;29;20440;-41
2023/11/02 07:43:33;;;;;;;14.30;13.33;;;11.40;1.00;;;;;;4872445;29;20503;-40
2023/11/02 07:45:59;;;;;;;15.13;14.17;;;11.50;1.00;;;;;;4875592;29;20527;-40
2023/11/02 07:48:24;;;;;;;13.43;12.60;;;11.60;1.00;;;;;;4875645;29;20512;-42
2023/11/02 07:50:50;;;;;;;13.80;12.93;;;11.80;1.00;;;;;;4873702;29;20892;-41
2023/11/02 07:53:17;;;;;;;13.50;12.70;;;11.80;55.30;;;;;;4879550;29;20860;-45
2023/11/02 07:55:43;;;;;;;13.27;12.33;;;11.70;1.00;;;;;;4877711;29;20187;-42
2023/11/02 07:58:12;;;;;;;14.17;13.27;;;11.80;1.00;;;;;;4879093;29;20430;-41
2023/11/02 08:00:38;;;;;;;14.23;13.33;;;11.80;1.00;;;;;;4885125;29;21032;-40
2023/11/02 08:03:04;;;;;;;13.00;12.10;;;11.90;1.00;;;;;;4856933;29;20451;-39
2023/11/02 08:05:29;;;;;;;12.80;12.00;;;11.90;99.90;;;;;;4867735;29;20193;-43
2023/11/02 08:07:55;;;;;;;13.10;12.30;;;11.80;99.90;;;;;;4873829;29;20624;-40
2023/11/02 08:10:21;;;;;;;13.30;12.40;;;11.70;99.90;;;;;;4881961;29;20207;-41
2023/11/02 08:12:46;;;;;;;13.10;12.30;;;11.90;1.00;;;;;;4871788;29;20199;-42
2023/11/02 08:15:12;;;;;;;12.83;11.97;;;12.10;1.00;;;;;;4877071;29;20199;-41
2023/11/02 08:17:39;;;;;;;13.80;12.90;;;12.10;1.00;;;;;;4854967;29;20551;-40
2023/11/02 08:20:05;;;;;;;13.20;12.40;;;12.20;99.90;;;;;;4882519;29;20219;-41
2023/11/02 08:22:31;;;;;;;13.00;12.23;;;12.30;98.30;;;;;;4878138;29;20828;-39
2023/11/02 08:24:57;;;;;;;13.73;12.97;;;12.30;1.00;;;;;;4873659;29;20520;-43
2023/11/02 08:27:22;;;;;;;13.17;12.47;;;12.30;1.00;;;;;;4876090;29;20212;-41
2023/11/02 08:29:48;;;;;;;14.63;13.50;;;12.30;1.00;;;;;;4892822;29;20178;-42
2023/11/02 08:32:13;;;;;;;13.23;12.47;;;12.40;1.00;;;;;;4880745;29;20176;-40
2023/11/02 08:34:42;;;;;;;13.13;12.40;;;12.40;99.90;;;;;;4874706;29;20208;-40
2023/11/02 08:37:11;;;;;;;13.03;12.33;;;12.40;99.90;;;;;;4872091;29;20199;-39
2023/11/02 08:39:40;;;;;;;13.47;12.60;;;12.40;99.90;;;;;;4886813;29;20419;-41
2023/11/02 08:42:06;;;;;;;13.30;12.53;;;12.30;99.90;;;;;;4855727;29;20417;-41
2023/11/02 08:44:32;;;;;;;13.50;12.70;;;12.30;99.90;;;;;;4876421;29;20435;-40
2023/11/02 08:46:57;;;;;;;13.03;12.13;;;12.30;99.90;;;;;;4875712;29;20425;-40
2023/11/02 08:49:23;;;;;;;13.27;12.47;;;12.40;99.90;;;;;;4867176;29;20184;-41
2023/11/02 08:51:48;;;;;;;13.00;12.30;;;12.40;99.90;;;;;;4865184;29;20679;-41
2023/11/02 08:54:15;;;;;;;12.40;11.70;;;12.30;99.90;;;;;;4871867;29;20256;-40
2023/11/02 08:56:42;;;;;;;13.27;12.57;;;12.30;99.90;;;;;;4856534;29;20232;-40
2023/11/02 08:59:08;;;;;;;13.07;12.33;;;12.30;99.90;;;;;;4875439;29;20428;-40
2023/11/02 09:01:34;;;;;;;12.20;11.60;;;12.30;99.90;;;;;;4876107;29;20420;-40
2023/11/02 09:04:03;;;;;;;13.33;12.60;;;12.20;99.90;;;;;;4860498;29;20445;-40
2023/11/02 09:06:29;;;;;;;11.80;11.10;;;12.30;99.90;;;;;;4856377;29;20484;-42
2023/11/02 09:08:58;;;;;;;11.93;11.33;;;12.30;99.90;;;;;;4864489;29;20922;-41
2023/11/02 09:11:24;;;;;;;13.37;12.53;;;12.30;99.90;;;;;;4882259;29;20232;-39
2023/11/02 09:13:50;;;;;;;12.37;11.67;;;12.20;59.90;;;;;;4878203;29;20906;-40
2023/11/02 09:16:15;;;;;;;13.00;12.10;;;12.30;53.00;;;;;;4883047;29;20427;-40
2023/11/02 09:18:42;;;;;;;12.70;11.70;;;12.20;66.40;;;;;;4875868;29;20243;-40
2023/11/02 09:21:08;;;;;;;12.07;11.37;;;12.20;61.90;;;;;;4871458;29;20199;-40
2023/11/02 09:23:34;;;;;;;13.83;13.03;;;12.30;90.90;;;;;;4855983;29;20421;-42
2023/11/02 09:26:02;;;;;;;12.57;11.87;;;12.30;23.50;;;;;;4882233;29;20424;-39
2023/11/02 09:28:27;;;;;;;13.07;12.27;;;12.30;1.00;;;;;;4875017;29;20424;-39
2023/11/02 09:30:53;;;;;;;13.00;12.20;;;12.50;1.00;;;;;;4880723;29;20494;-47
2023/11/02 09:33:19;;;;;;;13.13;12.13;;;12.90;1.00;;;;;;4870084;29;20188;-48
2023/11/02 09:35:45;;;;;;;13.53;12.73;;;13.50;1.00;;;;;;4865766;29;20249;-42
2023/11/02 09:38:11;;;;;;;13.20;12.40;;;14.40;99.90;;;;;;4872282;29;21148;-43
2023/11/02 09:40:37;;;;;;;12.63;12.00;;;14.90;1.00;;;;;;4878149;29;20195;-46
2023/11/02 09:43:06;;;;;;;12.83;12.13;;;14.90;1.00;;;;;;4876081;29;20647;-46
2023/11/02 09:45:32;;;;;;;12.57;11.87;;;14.90;1.00;;;;;;4876620;29;20808;-49
2023/11/02 09:48:01;;;;;;;12.73;12.03;;;14.90;1.00;;;;;;4868016;29;20543;-46
2023/11/02 09:50:27;;;;;;;11.90;11.20;;;14.50;1.00;;;;;;4885299;29;20539;-44
2023/11/02 09:52:54;;;;;;;12.37;11.67;;;14.50;1.00;;;;;;4876266;29;20436;-45
2023/11/02 09:55:20;;;;;;;13.07;12.30;;;14.60;1.00;;;;;;4883181;29;20183;-47
2023/11/02 09:57:48;;;;;;;13.10;12.30;;;14.40;1.00;;;;;;4857251;29;20422;-47
2023/11/02 10:00:17;;;;;;;12.43;11.73;;;15.00;1.00;;;;;;4867036;29;20578;-50
2023/11/02 10:02:47;;;;;;;12.27;11.57;;;15.50;1.00;;;;;;4856924;29;20443;-47
2023/11/02 10:05:12;;;;;;;12.77;12.10;;;15.80;1.00;;;;;;4846916;29;20936;-47
2023/11/02 10:07:38;;;;;;;12.10;11.40;;;15.60;1.00;;;;;;4875662;29;20432;-47
2023/11/02 10:10:04;;;;;;;12.40;11.70;;;16.00;1.00;;;;;;4878407;29;20262;-48
2023/11/02 10:12:37;;;;;;;13.50;12.70;;;15.80;1.00;;;;;;4875750;29;20295;-47
2023/11/02 10:15:07;;;;;;;12.97;12.27;;;15.50;1.00;;;;;;4878101;29;20420;-47
2023/11/02 10:17:37;;;;;;;13.53;12.83;;;15.10;1.00;;;;;;4875186;29;20967;-45
2023/11/02 10:20:13;;;;;;;12.83;12.20;;;14.80;1.00;;;;;;4855768;29;20903;-48
2023/11/02 10:22:40;;;;;;;13.07;12.30;;;14.50;1.00;;;;;;4856969;29;20440;-46
2023/11/02 10:25:06;;;;;;;12.77;12.07;;;14.50;1.00;;;;;;4863909;29;20432;-48
2023/11/02 10:27:32;;;;;;;12.70;12.00;;;14.50;1.00;;;;;;4883885;29;20437;-44
2023/11/02 10:29:58;;;;;;;13.00;12.20;;;14.80;1.00;;;;;;4862564;29;20603;-49
2023/11/02 10:32:24;;;;;;;13.23;12.23;;;14.90;1.00;;;;;;4884038;29;20188;-45
2023/11/02 10:34:51;;;;;;;12.80;12.10;;;15.00;1.00;;;;;;4881265;29;20444;-48
2023/11/02 10:37:31;;;;;;;13.60;12.80;;;15.20;1.00;;;;;;4866110;29;20451;-48
2023/11/02 10:39:57;;;;;;;13.50;12.80;;;15.30;1.00;;;;;;4857808;29;20436;-46
2023/11/02 10:42:27;;;;;;;13.43;12.63;;;15.30;1.00;;;;;;4873473;29;20923;-47
2023/11/02 10:44:53;;;;;;;12.97;12.37;;;15.80;1.00;;;;;;4874974;29;20515;-44
2023/11/02 10:47:24;;;;;;;12.03;11.43;;;16.30;1.00;;;;;;4858220;29;20463;-45
2023/11/02 10:49:53;;;;;;;13.07;12.23;;;16.40;1.00;;;;;;4874781;29;20432;-48
2023/11/02 10:52:29;;;;;;;12.50;11.80;;;16.60;1.00;;;;;;4876701;29;20429;-52
2023/11/02 10:55:08;;;;;;;11.40;10.80;;;16.70;1.00;;;;;;4857879;29;20439;-47
2023/11/02 10:57:35;;;;;;;11.27;10.67;;;16.80;1.00;;;;;;4874475;29;20424;-46
2023/11/02 11:00:04;;;;;;;12.10;11.20;;;16.90;1.00;;;;;;4873994;29;20910;-46
2023/11/02 11:02:30;;;;;;;11.97;11.17;;;17.10;1.00;;;;;;4885254;29;20846;-46
2023/11/02 11:04:58;;;;;;;12.00;11.40;;;16.90;99.90;;;;;;4874812;29;20463;-52
2023/11/02 11:07:23;;;;;;;10.77;10.17;;;16.90;99.90;;;;;;4884347;29;20416;-51
2023/11/02 11:09:51;;;;;;;11.87;11.30;;;16.60;99.90;;;;;;4874619;29;20476;-50
2023/11/02 11:12:20;;;;;;;11.70;11.10;;;16.10;99.90;;;;;;4885966;29;20242;-50
2023/11/02 11:14:47;;;;;;;12.13;11.33;;;15.90;99.90;;;;;;4878597;29;20447;-47
2023/11/02 11:17:12;;;;;;;11.80;11.20;;;15.50;99.90;;;;;;4884756;29;20427;-46
2023/11/02 11:19:39;;;;;;;12.47;11.77;;;15.30;1.00;;;;;;4878216;29;20888;-50
2023/11/02 11:22:14;;;;;;;11.77;11.07;;;15.30;1.00;;;;;;4882910;29;20262;-47
2023/11/02 11:24:40;;;;;;;12.10;11.50;;;15.20;1.00;;;;;;4878413;29;20507;-50
2023/11/02 11:27:07;;;;;;;11.77;11.17;;;15.00;1.00;;;;;;4881495;29;20507;-51
2023/11/02 11:29:42;;;;;;;11.40;10.80;;;14.60;1.00;;;;;;4873930;29;20180;-48
2023/11/02 11:32:31;;;;;;;12.23;11.53;;;14.50;1.00;;;;;;4851143;29;20495;-46
2023/11/02 11:34:58;;;;;;;11.97;11.37;;;14.50;1.00;;;;;;4857752;29;20449;-46
2023/11/02 11:37:47;;;;;;;12.50;11.80;;;14.40;1.00;;;;;;4878905;29;20476;-49
2023/11/02 11:40:19;;;;;;;14.00;13.10;;;14.50;1.00;;;;;;4878209;29;20455;-46
2023/11/02 11:43:05;;;;;;;13.37;12.57;;;14.40;1.00;;;;;;4889405;29;20431;-50
2023/11/02 11:45:55;;;;;;;13.43;12.73;;;14.50;1.00;;;;;;4877861;29;20424;-46
2023/11/02 11:48:42;;;;;;;13.40;12.70;;;14.60;1.00;;;;;;4861126;29;20510;-47
2023/11/02 11:51:40;;;;;;;13.70;12.90;;;15.10;1.00;;;;;;4878060;29;20456;-49
2023/11/02 11:54:14;;;;;;;12.90;12.20;;;15.60;1.00;;;;;;4862950;29;21008;-45
2023/11/02 11:56:41;;;;;;;13.47;12.73;;;15.80;1.00;;;;;;4875065;29;20419;-46
2023/11/02 11:59:10;;;;;;;13.13;12.47;;;15.70;1.00;;;;;;4876162;29;20440;-52
2023/11/02 12:01:37;;;;;;;14.83;13.83;;;15.20;1.00;;;;;;4872393;29;20841;-50
2023/11/02 12:04:04;;;;;;;14.30;13.40;;;14.80;1.00;;;;;;4874391;29;20440;-47
2023/11/02 12:06:47;;;;;;;13.53;12.73;;;14.70;1.00;;;;;;4861811;29;20834;-51
2023/11/02 12:09:13;;;;;;;13.63;12.83;;;14.50;1.00;;;;;;4866053;29;20865;-49
2023/11/02 12:11:44;;;;;;;13.03;12.33;;;14.50;1.00;;;;;;4878964;29;20842;-47
2023/11/02 12:14:18;;;;;;;13.50;12.60;;;14.40;1.00;;;;;;4877635;29;20460;-46
2023/11/02 12:16:46;;;;;;;14.13;13.30;;;14.40;1.00;;;;;;4879743;29;20424;-48
2023/11/02 12:19:12;;;;;;;13.17;12.37;;;14.40;1.00;;;;;;4888164;29;20463;-48
2023/11/02 12:21:40;;;;;;;13.20;12.50;;;14.20;1.00;;;;;;4878369;29;20428;-46
2023/11/02 12:24:12;;;;;;;13.53;12.70;;;14.30;1.00;;;;;;4888343;29;20195;-47
2023/11/02 12:26:40;;;;;;;12.40;11.70;;;14.30;1.00;;;;;;4876186;29;20452;-45
2023/11/02 12:29:09;;;;;;;13.77;12.87;;;14.20;1.00;;;;;;4870631;29;20444;-46
2023/11/02 12:31:35;;;;;;;12.93;12.23;;;14.30;1.00;;;;;;4860320;29;20995;-49
2023/11/02 12:34:05;;;;;;;13.70;12.90;;;14.30;1.00;;;;;;4879808;29;20499;-46
2023/11/02 12:36:31;;;;;;;14.13;13.33;;;14.30;1.00;;;;;;4860915;29;20441;-47
2023/11/02 12:38:57;;;;;;;13.67;12.87;;;14.20;1.00;;;;;;4884035;29;20505;-48
2023/11/02 12:41:27;;;;;;;14.07;13.20;;;14.20;1.00;;;;;;4876636;29;20520;-47
2023/11/02 12:43:59;;;;;;;13.17;12.37;;;14.20;1.00;;;;;;4876103;29;20195;-47
2023/11/02 12:46:24;;;;;;;15.20;14.20;;;14.20;1.00;;;;;;4859543;29;20920;-45
2023/11/02 12:48:50;;;;;;;14.83;13.93;;;14.20;1.00;;;;;;4872990;29;20539;-45
2023/11/02 12:51:21;;;;;;;14.50;13.60;;;14.20;1.00;;;;;;4876541;29;20195;-53